Time;durP1;ratioP1;P1;durP2;ratioP2;P2;SDS_P1;SDS_P2;PMS_P1;PMS_P2;Temp;Humidity;BMP_temperature;BMP_pressure;BME280_temperature;BME280_humidity;BME280_pressure;Samples;Min_cycle;Max_cycle;Signal;HPM_P1;HPM_P2
2023/02/12 15:16:14;;;;;;;1.13;1.02;;;;;;;7.42;58.97;101497.16;5132898;27;20390;-65
2023/02/12 15:18:57;;;;;;;0.95;0.75;;;;;;;7.46;59.75;101499.06;5131779;27;20061;-65
2023/02/12 15:21:30;;;;;;;2.17;1.45;;;;;;;7.50;59.18;101498.38;5131774;27;20545;-67
2023/02/12 15:24:06;;;;;;;2.00;1.42;;;;;;;7.51;59.25;101502.63;5131867;27;20054;-68
2023/02/12 15:26:40;;;;;;;0.47;0.47;;;;;;;7.48;59.31;101502.53;5131775;27;20138;-66
2023/02/12 15:29:20;;;;;;;0.85;0.85;;;;;;;7.43;59.39;101504.88;5131810;27;20050;-66
2023/02/12 15:31:55;;;;;;;0.63;0.63;;;;;;;7.38;59.68;101502.94;5131748;27;20050;-66
2023/02/12 15:34:28;;;;;;;0.70;0.70;;;;;;;7.30;59.86;101507.69;5131842;27;20112;-67
2023/02/12 15:36:59;;;;;;;2.70;2.22;;;;;;;7.27;60.38;101502.47;5131639;27;20048;-68
2023/02/12 15:39:38;;;;;;;1.33;1.23;;;;;;;7.22;60.48;101503.13;5131365;27;20052;-67
2023/02/12 15:42:25;;;;;;;1.50;1.40;;;;;;;7.18;61.39;101501.22;5131501;27;20074;-68
2023/02/12 15:45:06;;;;;;;1.38;1.27;;;;;;;7.12;60.81;101501.00;5131924;27;20485;-67
2023/02/12 15:47:36;;;;;;;2.90;2.42;;;;;;;7.14;61.07;101509.53;5131386;27;20052;-66
2023/02/12 15:50:06;;;;;;;0.95;0.95;;;;;;;7.08;61.71;101514.38;5131641;27;20043;-67
2023/02/12 15:52:40;;;;;;;1.02;0.93;;;;;;;7.02;61.94;101509.00;5131905;27;20051;-68
2023/02/12 15:55:17;;;;;;;2.05;1.33;;;;;;;6.96;61.70;101507.06;5131137;27;20138;-66
2023/02/12 15:57:50;;;;;;;0.50;0.50;;;;;;;6.87;61.48;101508.34;5131540;27;20501;-68
2023/02/12 16:00:29;;;;;;;1.38;1.27;;;;;;;6.74;61.90;101505.28;5131158;27;20127;-68
2023/02/12 16:02:59;;;;;;;0.90;0.90;;;;;;;6.74;62.18;101512.88;5131403;27;20473;-67
2023/02/12 16:05:29;;;;;;;1.33;1.10;;;;;;;6.64;62.41;101515.84;5131437;27;20043;-68
2023/02/12 16:07:58;;;;;;;0.30;0.30;;;;;;;6.58;62.50;101515.56;5130925;27;20057;-66
2023/02/12 16:10:27;;;;;;;0.82;0.77;;;;;;;6.53;62.24;101513.59;5130863;27;20078;-68
2023/02/12 16:12:56;;;;;;;0.98;0.93;;;;;;;6.50;62.79;101521.94;5130940;27;20063;-68
2023/02/12 16:15:30;;;;;;;0.80;0.80;;;;;;;6.31;62.84;101496.53;5130459;27;20503;-66
2023/02/12 16:18:02;;;;;;;6.53;2.25;;;;;;;6.37;62.99;101519.66;5130837;27;20287;-66
2023/02/12 16:20:32;;;;;;;0.35;0.35;;;;;;;6.31;63.19;101524.44;5129774;28;20051;-67
2023/02/12 16:23:07;;;;;;;1.38;1.00;;;;;;;6.28;63.25;101537.00;5130705;27;20051;-66
2023/02/12 16:25:37;;;;;;;0.38;0.38;;;;;;;6.22;63.47;101534.16;5127247;27;20556;-66
2023/02/12 16:28:16;;;;;;;1.65;0.95;;;;;;;6.18;63.61;101547.50;5117284;28;20097;-66
2023/02/12 16:30:47;;;;;;;1.13;1.03;;;;;;;6.12;63.45;101557.34;5115883;28;20055;-66
2023/02/12 16:33:35;;;;;;;4.47;2.03;;;;;;;6.03;63.77;101547.66;5116783;28;20058;-67
2023/02/12 16:36:05;;;;;;;3.40;2.35;;;;;;;5.95;63.93;101558.25;5116753;28;20047;-68
2023/02/12 16:38:41;;;;;;;0.88;0.85;;;;;;;5.86;64.16;101555.25;5116635;28;20047;-66
2023/02/12 16:41:23;;;;;;;0.40;0.40;;;;;;;5.78;64.42;101559.06;5116751;28;20039;-68
2023/02/12 16:44:23;;;;;;;1.65;1.55;;;;;;;5.70;64.61;101560.34;5116918;28;20090;-66
2023/02/12 16:46:55;;;;;;;0.30;0.30;;;;;;;5.63;64.85;101563.38;5116847;28;20493;-66
2023/02/12 16:49:26;;;;;;;0.50;0.50;;;;;;;5.55;65.33;101564.63;5116879;27;20085;-68
2023/02/12 16:52:22;;;;;;;0.65;0.65;;;;;;;5.51;65.28;101558.56;5116441;28;20405;-67
2023/02/12 16:54:51;;;;;;;3.22;1.85;;;;;;;5.49;65.65;101556.75;5116611;28;20044;-67
2023/02/12 16:57:20;;;;;;;20.48;1.70;;;;;;;5.42;65.88;101553.91;5116712;28;20059;-66
2023/02/12 16:59:48;;;;;;;0.80;0.77;;;;;;;5.37;66.05;101555.31;5116606;28;20490;-65
2023/02/12 17:02:17;;;;;;;0.47;0.47;;;;;;;5.35;66.10;101551.84;5116257;28;20114;-67
2023/02/12 17:04:47;;;;;;;1.88;1.65;;;;;;;5.38;66.61;101557.09;5116149;28;20284;-68
2023/02/12 17:07:22;;;;;;;3.83;2.72;;;;;;;5.42;66.25;101560.66;5116213;28;20051;-67
2023/02/12 17:09:51;;;;;;;2.53;1.60;;;;;;;5.42;66.54;101569.09;5116391;28;20439;-66
2023/02/12 17:12:20;;;;;;;0.52;0.52;;;;;;;5.43;66.56;101559.84;5114902;28;20071;-66
2023/02/12 17:14:50;;;;;;;3.72;2.55;;;;;;;5.47;66.40;101563.41;5116105;28;20398;-67
2023/02/12 17:17:19;;;;;;;1.20;1.10;;;;;;;5.50;66.19;101573.66;5115905;28;20067;-67
2023/02/12 17:19:49;;;;;;;0.47;0.47;;;;;;;5.49;66.40;101580.41;5116163;28;20419;-67
2023/02/12 17:22:22;;;;;;;0.50;0.50;;;;;;;5.43;66.60;101575.03;5116168;28;20071;-67
2023/02/12 17:24:53;;;;;;;1.92;1.58;;;;;;;5.41;66.52;101582.56;5116186;28;20048;-67
2023/02/12 17:27:22;;;;;;;0.50;0.50;;;;;;;5.36;66.76;101586.53;5116069;28;20409;-66
2023/02/12 17:29:51;;;;;;;0.47;0.47;;;;;;;5.33;67.03;101588.88;5115795;28;20039;-67
2023/02/12 17:32:21;;;;;;;0.80;0.80;;;;;;;5.28;67.12;101595.38;5115687;28;20047;-67
2023/02/12 17:34:51;;;;;;;4.15;2.00;;;;;;;5.24;67.36;101588.44;5115760;28;20472;-66
2023/02/12 17:37:23;;;;;;;1.02;0.93;;;;;;;5.19;67.03;101594.91;5114838;28;20039;-66
2023/02/12 17:39:52;;;;;;;2.15;1.95;;;;;;;5.12;67.40;101592.00;5115363;28;20535;-66
2023/02/12 17:42:22;;;;;;;0.93;0.93;;;;;;;5.09;67.61;101592.69;5115799;28;20040;-66
2023/02/12 17:44:50;;;;;;;0.65;0.65;;;;;;;5.06;67.62;101592.53;5115361;28;20044;-66
2023/02/12 17:47:19;;;;;;;3.83;1.50;;;;;;;5.04;67.86;101594.13;5115678;28;20474;-66
2023/02/12 17:49:48;;;;;;;2.72;2.28;;;;;;;5.01;68.00;101604.09;5115576;28;20116;-65
2023/02/12 17:52:18;;;;;;;1.83;1.20;;;;;;;4.95;68.17;101601.22;5115176;28;20123;-65
2023/02/12 17:54:47;;;;;;;1.75;1.45;;;;;;;4.93;68.40;101594.34;5115510;28;20503;-67
2023/02/12 17:57:17;;;;;;;1.58;1.48;;;;;;;4.84;67.92;101596.41;5115063;28;20051;-67
2023/02/12 17:59:46;;;;;;;1.40;1.23;;;;;;;4.72;68.29;101594.09;5116017;28;20070;-66
2023/02/12 18:02:15;;;;;;;1.60;1.50;;;;;;;4.64;68.60;101585.22;5113751;28;20061;-66
2023/02/12 18:04:44;;;;;;;3.93;2.13;;;;;;;4.60;68.95;101583.34;5115361;28;20050;-67
2023/02/12 18:07:12;;;;;;;5.57;4.00;;;;;;;4.57;68.88;101578.09;5114958;28;20126;-66
2023/02/12 18:09:43;;;;;;;4.53;2.43;;;;;;;4.55;68.89;101589.78;5114979;28;20057;-67
2023/02/12 18:12:12;;;;;;;4.28;2.38;;;;;;;4.51;69.24;101598.00;5115146;28;20044;-67
2023/02/12 18:14:40;;;;;;;4.18;3.72;;;;;;;4.48;69.46;101598.72;5114590;28;20044;-66
2023/02/12 18:17:09;;;;;;;2.73;2.00;;;;;;;4.47;69.07;101602.00;5114716;28;20118;-66
2023/02/12 18:19:39;;;;;;;3.50;3.10;;;;;;;4.44;69.77;101606.06;5114958;28;20280;-67
2023/02/12 18:22:08;;;;;;;7.30;3.85;;;;;;;4.36;69.75;101602.22;5114995;28;20462;-67
2023/02/12 18:24:37;;;;;;;4.50;2.57;;;;;;;4.33;69.56;101607.09;5114692;28;20544;-66
2023/02/12 18:27:07;;;;;;;1.60;1.50;;;;;;;4.33;69.55;101604.56;5114588;28;20044;-66
2023/02/12 18:29:36;;;;;;;2.78;2.58;;;;;;;4.32;69.58;101606.22;5114504;28;20769;-67
2023/02/12 18:32:05;;;;;;;2.85;1.92;;;;;;;4.28;70.48;101604.31;5114567;28;20475;-67
2023/02/12 18:34:34;;;;;;;3.95;3.63;;;;;;;4.24;69.94;101611.66;5114702;28;20397;-66
2023/02/12 18:37:03;;;;;;;;;;;;;;;4.21;69.83;101606.44;5113748;28;20040;-67
2023/02/12 18:39:31;;;;;;;3.50;3.10;;;;;;;4.16;70.15;101603.66;5114315;28;19963;-68
2023/02/12 18:42:00;;;;;;;8.90;5.63;;;;;;;4.16;70.04;101602.78;5114300;28;20039;-66
2023/02/12 18:44:31;;;;;;;4.13;3.07;;;;;;;4.08;70.37;101599.81;5114600;28;20135;-66
2023/02/12 18:47:00;;;;;;;8.93;1.70;;;;;;;4.06;70.43;101602.25;5114396;28;20402;-66
2023/02/12 18:49:29;;;;;;;1.02;0.93;;;;;;;4.04;71.25;101602.97;5114194;28;20420;-66
2023/02/12 18:51:57;;;;;;;1.37;1.27;;;;;;;4.01;71.25;101608.72;5114471;28;20066;-66
2023/02/12 18:54:26;;;;;;;1.63;1.53;;;;;;;3.99;71.56;101607.75;5114198;28;20075;-67
2023/02/12 18:56:55;;;;;;;31.37;1.73;;;;;;;3.98;71.62;101607.69;5114277;28;20538;-67
2023/02/12 18:59:24;;;;;;;1.08;1.00;;;;;;;3.96;71.48;101594.94;5114464;28;20109;-66
2023/02/12 19:01:56;;;;;;;6.18;2.13;;;;;;;3.96;71.52;101609.22;5114092;28;20062;-67
2023/02/12 19:04:26;;;;;;;3.50;1.10;;;;;;;3.94;71.24;101616.72;5114733;28;20425;-66
2023/02/12 19:06:56;;;;;;;1.75;0.80;;;;;;;3.90;71.15;101624.94;5114065;28;20122;-67
2023/02/12 19:09:26;;;;;;;0.73;0.73;;;;;;;3.76;71.16;101614.81;5114018;28;20126;-66
2023/02/12 19:11:56;;;;;;;2.03;1.33;;;;;;;3.68;71.76;101632.06;5114225;28;20046;-66
2023/02/12 19:14:27;;;;;;;4.40;1.33;;;;;;;3.65;71.82;101624.28;5113835;28;20054;-66
2023/02/12 19:16:57;;;;;;;4.18;1.80;;;;;;;3.49;72.30;101616.63;5112734;28;20051;-66
2023/02/12 19:19:27;;;;;;;2.67;1.90;;;;;;;3.41;72.30;101620.34;5113966;28;20079;-66
2023/02/12 19:21:55;;;;;;;3.78;3.45;;;;;;;3.32;72.41;101630.78;5113855;28;20093;-66
2023/02/12 19:24:25;;;;;;;1.30;1.20;;;;;;;3.27;71.76;101632.16;5113642;28;20062;-66
2023/02/12 19:27:13;;;;;;;2.03;1.90;;;;;;;3.13;72.18;101634.63;5113935;28;20051;-66
2023/02/12 19:29:42;;;;;;;1.93;1.60;;;;;;;2.98;72.43;101633.69;5113857;28;20036;-67
2023/02/12 19:32:12;;;;;;;1.35;1.25;;;;;;;2.91;71.85;101631.56;5114029;28;20053;-67
2023/02/12 19:34:41;;;;;;;5.78;2.53;;;;;;;2.88;72.36;101637.28;5114131;28;20051;-66
2023/02/12 19:37:11;;;;;;;1.48;1.38;;;;;;;2.83;72.88;101632.78;5113985;28;20046;-67
2023/02/12 19:39:40;;;;;;;1.65;1.55;;;;;;;2.81;73.15;101632.66;5113769;28;20486;-67
2023/02/12 19:42:13;;;;;;;1.15;1.10;;;;;;;2.76;73.36;101618.91;5113608;28;20047;-66
2023/02/12 19:44:43;;;;;;;0.57;0.57;;;;;;;2.68;73.01;101628.53;5113668;28;20044;-66
2023/02/12 19:47:13;;;;;;;1.05;1.05;;;;;;;2.65;73.06;101637.53;5113698;28;20077;-67
2023/02/12 19:49:42;;;;;;;3.33;1.83;;;;;;;2.52;74.00;101635.91;5114005;28;20051;-65
2023/02/12 19:52:12;;;;;;;1.92;1.80;;;;;;;2.46;74.18;101642.22;5113873;28;20044;-66
2023/02/12 19:54:40;;;;;;;2.13;1.93;;;;;;;2.50;74.21;101639.97;5114177;28;20366;-66
2023/02/12 19:57:10;;;;;;;3.23;2.67;;;;;;;2.57;74.54;101632.03;5113811;28;20040;-67
2023/02/12 19:59:42;;;;;;;1.83;1.73;;;;;;;2.49;75.27;101633.22;5113607;28;20051;-66
2023/02/12 20:02:10;;;;;;;4.88;2.95;;;;;;;2.48;75.63;101631.44;5116516;28;20043;-66
2023/02/12 20:04:41;;;;;;;1.57;1.47;;;;;;;2.44;74.81;101642.13;5117702;28;20040;-66
2023/02/12 20:07:10;;;;;;;0.98;0.98;;;;;;;2.44;75.69;101643.78;5117686;28;20489;-67
2023/02/12 20:09:38;;;;;;;1.90;1.80;;;;;;;2.39;75.28;101646.00;5117581;28;20482;-66
2023/02/12 20:12:07;;;;;;;4.07;3.10;;;;;;;2.34;75.21;101647.34;5117604;28;20287;-67
2023/02/12 20:14:36;;;;;;;6.90;1.60;;;;;;;2.31;75.00;101647.16;5116925;28;20050;-66
2023/02/12 20:17:05;;;;;;;1.05;0.95;;;;;;;2.26;75.67;101643.47;5117120;28;20039;-66
2023/02/12 20:19:34;;;;;;;1.45;1.35;;;;;;;2.17;75.77;101640.38;5117097;28;20126;-66
2023/02/12 20:22:05;;;;;;;1.83;1.67;;;;;;;2.15;75.10;101641.91;5117386;28;20568;-66
2023/02/12 20:24:34;;;;;;;1.63;1.52;;;;;;;2.11;75.61;101647.53;5117018;28;20044;-66
2023/02/12 20:27:03;;;;;;;1.52;1.42;;;;;;;1.98;74.80;101645.00;5117277;28;20489;-65
2023/02/12 20:29:32;;;;;;;0.95;0.95;;;;;;;1.95;75.50;101649.81;5117248;28;20032;-66
2023/02/12 20:32:01;;;;;;;4.45;1.88;;;;;;;1.85;74.95;101647.47;5116891;28;20564;-66
2023/02/12 20:34:30;;;;;;;3.13;2.40;;;;;;;1.75;75.29;101648.50;5116746;28;20047;-66
2023/02/12 20:37:18;;;;;;;1.13;1.08;;;;;;;1.75;75.96;101645.16;5116818;28;20048;-65
2023/02/12 20:39:47;;;;;;;1.80;1.60;;;;;;;1.74;76.16;101648.44;5116737;28;20100;-66
2023/02/12 20:42:15;;;;;;;2.20;2.00;;;;;;;1.67;75.72;101651.31;5116673;28;20050;-65
2023/02/12 20:44:44;;;;;;;6.53;3.22;;;;;;;1.61;75.84;101645.88;5116931;28;20036;-65
2023/02/12 20:47:13;;;;;;;7.60;2.00;;;;;;;1.56;75.70;101649.75;5116584;28;20565;-66
2023/02/12 20:49:42;;;;;;;4.97;3.47;;;;;;;1.47;76.02;101651.63;5116549;28;20042;-66
2023/02/12 20:52:11;;;;;;;2.35;2.15;;;;;;;1.39;76.01;101656.16;5116787;28;20568;-67
2023/02/12 20:54:41;;;;;;;2.67;2.47;;;;;;;1.37;76.64;101650.13;5116354;28;20035;-65
2023/02/12 20:57:10;;;;;;;3.97;3.67;;;;;;;1.34;76.82;101655.81;5116346;28;20071;-66
2023/02/12 20:59:39;;;;;;;2.10;1.95;;;;;;;1.39;76.56;101656.16;5116696;28;20130;-66
2023/02/12 21:02:10;;;;;;;2.40;2.20;;;;;;;1.30;76.45;101653.00;5116916;28;20032;-66
2023/02/12 21:04:38;;;;;;;2.13;2.00;;;;;;;1.27;77.09;101648.63;5116527;28;20491;-66
2023/02/12 21:07:07;;;;;;;1.40;1.27;;;;;;;1.26;77.09;101654.47;5116243;28;20126;-66
2023/02/12 21:09:36;;;;;;;0.70;0.70;;;;;;;1.24;76.77;101653.47;5116137;28;20070;-66
2023/02/12 21:12:06;;;;;;;1.17;1.10;;;;;;;1.12;76.58;101652.66;5116037;28;20039;-66
2023/02/12 21:14:35;;;;;;;8.13;3.08;;;;;;;1.03;77.08;101662.03;5115808;28;20058;-66
2023/02/12 21:17:04;;;;;;;4.90;3.33;;;;;;;1.03;77.14;101662.03;5115996;28;20130;-66
2023/02/12 21:19:35;;;;;;;1.25;1.05;;;;;;;1.08;77.56;101663.25;5116046;27;20043;-67
2023/02/12 21:22:04;;;;;;;6.70;1.90;;;;;;;1.05;77.40;101664.69;5115995;28;20127;-67
2023/02/12 21:24:34;;;;;;;3.40;2.17;;;;;;;1.07;77.46;101669.06;5116195;28;20032;-67
2023/02/12 21:27:02;;;;;;;5.38;4.80;;;;;;;1.10;78.49;101666.75;5115728;28;20318;-66
2023/02/12 21:29:33;;;;;;;1.67;1.57;;;;;;;1.11;77.88;101670.13;5115755;28;20089;-67
2023/02/12 21:32:02;;;;;;;5.90;4.95;;;;;;;1.10;78.29;101669.28;5115754;28;20283;-67
2023/02/12 21:34:30;;;;;;;2.65;2.45;;;;;;;1.04;77.92;101663.81;5115637;27;20048;-67
2023/02/12 21:36:59;;;;;;;2.43;2.27;;;;;;;0.96;78.30;101671.59;5115817;28;20032;-66
2023/02/12 21:39:28;;;;;;;1.73;1.63;;;;;;;0.99;77.67;101681.84;5115567;28;20051;-67
2023/02/12 21:42:01;;;;;;;2.97;2.67;;;;;;;0.98;78.50;101673.47;5115501;28;20044;-67
2023/02/12 21:44:34;;;;;;;2.00;1.88;;;;;;;0.94;78.48;101674.00;5115526;28;20044;-67
2023/02/12 21:47:03;;;;;;;2.60;2.25;;;;;;;0.93;77.86;101672.25;5115788;28;20047;-67
2023/02/12 21:49:32;;;;;;;3.05;1.75;;;;;;;0.89;78.33;101670.28;5115381;28;20070;-67
2023/02/12 21:52:03;;;;;;;1.00;1.00;;;;;;;0.85;78.67;101670.84;5115430;27;20096;-67
2023/02/12 21:54:32;;;;;;;1.42;1.33;;;;;;;0.82;78.23;101668.09;5115629;28;20386;-67
2023/02/12 21:57:01;;;;;;;7.57;3.17;;;;;;;0.76;78.56;101660.16;5115176;28;20126;-67
2023/02/12 21:59:30;;;;;;;1.73;1.63;;;;;;;0.77;78.47;101671.94;5115414;28;20071;-67
2023/02/12 22:02:01;;;;;;;3.17;2.90;;;;;;;0.76;78.47;101677.75;5114006;28;20142;-67
2023/02/12 22:04:30;;;;;;;21.20;4.30;;;;;;;0.71;77.95;101683.22;5115438;28;20048;-67
2023/02/12 22:07:01;;;;;;;5.70;3.80;;;;;;;0.56;78.13;101685.50;5114985;28;20048;-67
2023/02/12 22:09:31;;;;;;;2.78;2.55;;;;;;;0.48;78.45;101681.59;5115005;28;20039;-67
2023/02/12 22:12:00;;;;;;;1.88;1.77;;;;;;;0.52;78.60;101681.03;5115248;27;20071;-67
2023/02/12 22:14:29;;;;;;;1.38;1.27;;;;;;;0.46;78.23;101688.13;5114725;28;20382;-67
2023/02/12 22:16:58;;;;;;;2.37;2.17;;;;;;;0.45;78.41;101701.47;5113705;28;20412;-67
2023/02/12 22:19:28;;;;;;;3.55;3.25;;;;;;;0.39;78.94;101701.00;5115073;28;20696;-67
2023/02/12 22:21:57;;;;;;;4.95;3.00;;;;;;;0.42;79.16;101701.25;5114840;27;20044;-67
2023/02/12 22:24:26;;;;;;;1.35;1.25;;;;;;;0.45;78.92;101701.47;5114526;28;20476;-67
2023/02/12 22:26:55;;;;;;;1.70;1.60;;;;;;;0.41;79.44;101699.47;5114670;28;20039;-67
2023/02/12 22:29:24;;;;;;;1.42;1.33;;;;;;;0.42;79.42;101701.25;5114643;28;20306;-67
2023/02/12 22:31:53;;;;;;;;;;;;;;;0.45;78.98;101711.50;5114978;28;20058;-67
2023/02/12 22:34:22;;;;;;;4.13;2.77;;;;;;;0.30;78.96;101711.28;5114535;28;19919;-67
2023/02/12 22:36:52;;;;;;;3.05;2.85;;;;;;;0.21;79.18;101710.63;5114841;28;20149;-67
2023/02/12 22:39:21;;;;;;;2.53;2.33;;;;;;;0.22;79.25;101716.50;5114430;28;20059;-67
2023/02/12 22:41:50;;;;;;;6.88;2.35;;;;;;;0.16;79.30;101716.06;5114414;28;20065;-68
2023/02/12 22:44:18;;;;;;;1.73;1.43;;;;;;;0.14;79.23;101722.59;5114728;28;20048;-67
2023/02/12 22:46:49;;;;;;;5.88;4.05;;;;;;;0.08;79.37;101707.06;5114331;28;20050;-67
2023/02/12 22:49:19;;;;;;;1.67;1.58;;;;;;;0.05;79.36;101712.75;5114550;28;20142;-67
2023/02/12 22:51:47;;;;;;;0.63;0.63;;;;;;;0.04;79.40;101717.66;5114271;28;20032;-68
2023/02/12 22:54:19;;;;;;;2.88;1.60;;;;;;;0.03;79.20;101713.41;5114266;28;20044;-68
2023/02/12 22:56:51;;;;;;;2.50;2.30;;;;;;;-0.10;79.16;101717.50;5114553;28;20066;-68
2023/02/12 22:59:19;;;;;;;4.53;3.10;;;;;;;-0.13;79.34;101712.28;5114103;28;20067;-68
2023/02/12 23:01:48;;;;;;;1.80;1.70;;;;;;;-0.07;79.74;101717.75;5114443;28;20055;-67
2023/02/12 23:04:18;;;;;;;1.90;1.53;;;;;;;-0.09;79.49;101709.22;5114502;28;20349;-68
2023/02/12 23:06:48;;;;;;;1.00;0.85;;;;;;;-0.15;79.55;101718.84;5114135;28;20123;-68
2023/02/12 23:09:18;;;;;;;1.70;1.60;;;;;;;-0.17;79.49;101714.47;5114035;28;20047;-68
2023/02/12 23:11:48;;;;;;;1.85;1.75;;;;;;;-0.09;79.74;101704.22;5114336;28;20493;-68
2023/02/12 23:14:17;;;;;;;8.75;2.78;;;;;;;-0.04;79.88;101702.91;5113738;28;20040;-68
2023/02/12 23:16:46;;;;;;;3.83;3.53;;;;;;;-0.04;79.95;101702.91;5114333;28;20130;-68
2023/02/12 23:19:15;;;;;;;3.75;3.45;;;;;;;0.01;80.06;101705.75;5114160;28;20397;-68
2023/02/12 23:21:44;;;;;;;5.15;4.75;;;;;;;0.02;80.00;101696.59;5113852;28;20043;-69
2023/02/12 23:24:14;;;;;;;2.13;2.00;;;;;;;-0.01;80.31;101703.16;5113904;28;20589;-68
2023/02/12 23:26:44;;;;;;;11.50;3.53;;;;;;;-0.08;80.18;101695.94;5113854;28;20059;-68
2023/02/12 23:29:13;;;;;;;4.18;3.33;;;;;;;-0.09;80.32;101691.66;5114208;28;20092;-68
2023/02/12 23:31:42;;;;;;;1.57;1.47;;;;;;;-0.13;80.05;101679.66;5113895;28;20443;-68
2023/02/12 23:34:11;;;;;;;1.90;1.77;;;;;;;-0.09;80.41;101684.13;5114187;28;20052;-68
2023/02/12 23:36:40;;;;;;;1.75;1.65;;;;;;;-0.09;80.80;101683.25;5116098;28;20474;-68
2023/02/12 23:39:12;;;;;;;2.07;1.90;;;;;;;-0.04;81.11;101685.34;5118282;27;20066;-68
2023/02/12 23:41:41;;;;;;;6.05;2.35;;;;;;;-0.07;80.76;101681.72;5117985;28;20211;-68
2023/02/12 23:44:11;;;;;;;0.93;0.85;;;;;;;-0.16;80.95;101686.97;5117859;28;20096;-68
2023/02/12 23:46:40;;;;;;;3.17;2.88;;;;;;;-0.15;80.92;101688.72;5117869;28;20138;-69
2023/02/12 23:49:09;;;;;;;0.80;0.80;;;;;;;-0.14;80.58;101690.44;5117777;28;20043;-68
2023/02/12 23:51:38;;;;;;;8.57;3.22;;;;;;;-0.13;80.88;101687.19;5117721;28;20040;-69
2023/02/12 23:54:07;;;;;;;6.65;5.00;;;;;;;-0.06;81.08;101689.41;5117975;28;20119;-69
2023/02/12 23:56:36;;;;;;;4.80;2.30;;;;;;;-0.11;80.82;101680.66;5117627;28;20096;-68
2023/02/12 23:59:05;;;;;;;2.43;2.23;;;;;;;-0.09;80.95;101689.16;5117535;28;20071;-68
